.
WxDataArchive / Data Records for 2011-04-23
2011-04-22 April 2011 2011-04-24

Data Records for Saturday, 23 April 2011

Time	Temp	Chill	HIndex	Humid	Dewpt	 Wind 	HiWind	WindDir	Rain 	Barom 
-----	----	-----	------	-----	-----	------	------	-------	-----	----- 
00:00	47.1	47.1	47.1	97	46.3	2	4	90	0.00	29.699 
00:05	47.3	47.3	47.3	97	46.5	2	4	90	0.00	29.699 
00:10	47.4	47.4	47.4	97	46.6	1	4	90	0.00	29.699 
00:15	47.6	47.6	47.6	97	46.8	1	4	90	0.00	29.689 
00:20	47.6	47.6	47.6	97	46.8	1	3	90	0.00	29.689 
00:25	47.7	47.7	47.7	97	46.9	0	3	90	0.00	29.689 
00:30	47.7	47.7	47.7	97	46.9	0	2	90	0.00	29.683 
00:35	47.9	47.9	47.9	97	47.1	0	0	---	0.00	29.683 
00:40	47.9	47.9	47.9	97	47.1	0	2	90	0.00	29.683 
00:45	48.0	48.0	48.0	98	47.5	0	1	90	0.00	29.680 
00:50	48.2	48.2	48.2	98	47.7	0	1	90	0.00	29.680 
00:55	48.3	48.3	48.3	98	47.8	0	1	90	0.00	29.680 
01:00	48.5	48.5	48.5	98	48.0	0	2	90	0.00	29.670 
01:05	48.5	48.5	48.5	98	48.0	0	0	---	0.00	29.670 
01:10	48.6	48.6	48.6	98	48.1	0	0	---	0.00	29.670 
01:15	48.8	48.8	48.8	98	48.3	0	0	---	0.00	29.654 
01:20	48.9	48.9	48.9	98	48.4	0	2	90	0.06	29.654 
01:25	49.2	49.2	49.2	98	48.7	1	3	90	0.02	29.654 
01:30	49.8	49.8	49.8	98	49.3	0	2	90	0.00	29.639 
01:35	50.5	50.5	50.5	98	50.0	1	4	90	0.08	29.639 
01:40	51.1	51.1	51.1	98	50.6	0	3	270	0.03	29.639 
01:45	51.4	51.4	51.4	98	50.9	0	2	270	0.00	29.649 
01:50	51.7	51.7	51.7	98	51.2	0	1	270	0.00	29.649 
01:55	52.8	52.8	52.8	99	52.5	0	1	270	0.00	29.649 
02:00	53.6	53.6	53.6	99	53.3	0	1	270	0.00	29.645 
02:05	54.8	54.8	54.8	99	54.5	0	1	270	0.00	29.645 
02:10	55.6	55.6	55.6	99	55.3	0	2	270	0.00	29.645 
02:15	56.3	56.3	56.3	99	56.0	0	2	270	0.00	29.644 
02:20	56.7	56.7	56.7	99	56.4	0	4	270	0.00	29.644 
02:25	58.1	58.1	58.1	99	57.8	1	4	270	0.00	29.644 
02:30	59.2	59.2	59.2	99	58.9	2	4	248	0.00	29.629 
02:35	59.8	59.8	59.8	99	59.5	1	3	248	0.00	29.629 
02:40	60.2	60.2	60.2	99	59.9	1	3	248	0.00	29.629 
02:45	60.7	60.7	60.7	99	60.4	3	6	248	0.00	29.632 
02:50	60.9	60.9	60.9	99	60.6	2	5	248	0.00	29.632 
02:55	61.0	61.0	61.0	99	60.7	2	5	248	0.00	29.632 
03:00	61.3	61.3	61.3	99	61.0	3	9	248	0.00	29.631 
03:05	61.5	61.5	61.5	99	61.2	3	5	248	0.00	29.631 
03:10	61.5	61.5	61.5	99	61.2	3	8	225	0.00	29.631 
03:15	61.6	61.6	61.6	99	61.3	3	7	248	0.00	29.627 
03:20	61.8	61.8	61.8	99	61.5	3	7	248	0.00	29.627 
03:25	61.8	61.8	61.8	99	61.5	3	6	248	0.00	29.627 
03:30	62.0	62.0	62.0	99	61.7	4	9	248	0.00	29.633 
03:35	62.1	62.1	62.1	98	61.5	3	7	248	0.00	29.633 
03:40	62.1	62.1	62.1	98	61.5	3	10	248	0.00	29.633 
03:45	62.3	62.3	62.3	98	61.7	3	9	248	0.00	29.637 
03:50	62.4	62.4	62.4	98	61.8	5	10	248	0.00	29.637 
03:55	62.6	62.6	62.6	98	62.0	4	9	248	0.00	29.637 
04:00	62.7	62.7	62.7	97	61.8	4	11	248	0.00	29.646 
04:05	62.9	62.9	62.9	97	62.0	4	10	248	0.00	29.646 
04:10	63.1	63.1	63.1	97	62.2	4	9	248	0.00	29.646 
04:15	63.1	63.1	63.1	96	61.9	3	9	248	0.00	29.652 
04:20	63.2	63.2	63.2	96	62.0	3	7	270	0.00	29.652 
04:25	63.2	63.2	63.2	95	61.7	3	10	248	0.00	29.652 
04:30	63.4	63.4	63.4	94	61.6	4	10	248	0.00	29.661 
04:35	63.4	63.4	63.4	94	61.6	3	7	248	0.00	29.661 
04:40	63.5	63.5	63.5	93	61.4	3	11	248	0.00	29.661 
04:45	63.7	63.7	63.7	92	61.3	5	10	248	0.00	29.663 
04:50	63.9	63.9	63.9	92	61.5	4	8	248	0.00	29.663 
04:55	63.9	63.9	63.9	91	61.2	3	9	248	0.00	29.663 
05:00	64.0	64.0	64.0	91	61.3	3	7	248	0.00	29.672 
05:05	64.2	64.2	64.2	90	61.2	3	7	248	0.00	29.672 
05:10	64.2	64.2	64.2	90	61.2	4	13	248	0.00	29.672 
05:15	64.3	64.3	64.3	89	61.0	4	12	225	0.00	29.681 
05:20	64.3	64.3	64.3	89	61.0	4	10	248	0.00	29.681 
05:25	64.3	64.3	64.3	88	60.7	4	12	248	0.00	29.681 
05:30	64.5	64.5	64.5	88	60.9	4	9	248	0.00	29.679 
05:35	64.5	64.5	64.5	88	60.9	4	10	248	0.00	29.679 
05:40	64.3	64.3	64.3	88	60.7	3	7	270	0.00	29.679 
05:45	64.3	64.3	64.3	88	60.7	3	7	248	0.00	29.684 
05:50	64.2	64.2	64.2	88	60.6	5	10	248	0.00	29.684 
05:55	64.0	64.0	64.0	88	60.4	3	8	270	0.00	29.684 
06:00	63.9	63.9	63.9	88	60.3	3	9	248	0.00	29.689 
06:05	63.5	63.5	63.5	87	59.6	4	12	248	0.00	29.689 
06:10	63.2	63.2	63.2	86	58.9	3	7	248	0.00	29.689 
06:15	62.9	62.9	62.9	86	58.6	3	9	248	0.00	29.692 
06:20	62.7	62.7	62.7	85	58.1	4	10	248	0.00	29.692 
06:25	62.6	62.6	62.6	85	58.0	3	7	248	0.00	29.692 
06:30	62.4	62.4	62.4	85	57.8	2	5	248	0.00	29.700 
06:35	62.3	62.3	62.3	85	57.7	2	4	248	0.00	29.700 
06:40	62.0	62.0	62.0	85	57.4	3	5	248	0.00	29.700 
06:45	61.6	61.6	61.6	86	57.4	2	4	248	0.00	29.715 
06:50	61.5	61.5	61.5	86	57.3	2	4	248	0.00	29.715 
06:55	61.3	61.3	61.3	87	57.4	2	5	248	0.00	29.715 
07:00	61.2	61.2	61.2	87	57.3	2	3	248	0.00	29.730 
07:05	60.9	60.9	60.9	87	57.0	1	5	248	0.00	29.730 
07:10	60.7	60.7	60.7	88	57.1	2	4	248	0.00	29.730 
07:15	60.4	60.4	60.4	88	56.8	2	5	248	0.00	29.733 
07:20	60.4	60.4	60.4	88	56.8	2	3	225	0.00	29.733 
07:25	60.2	60.2	60.2	88	56.6	2	5	248	0.00	29.733 
07:30	60.1	60.1	60.1	88	56.5	2	5	248	0.00	29.744 
07:35	60.1	60.1	60.1	88	56.5	2	4	248	0.00	29.744 
07:40	59.6	59.6	59.6	88	56.0	3	5	270	0.00	29.744 
07:45	59.2	59.2	59.2	87	55.3	3	6	270	0.00	29.750 
07:50	58.7	58.7	58.7	86	54.5	4	9	270	0.00	29.750 
07:55	58.6	58.6	58.6	86	54.4	3	6	248	0.00	29.750 
08:00	58.4	58.4	58.4	86	54.2	3	6	248	0.00	29.761 
08:05	58.3	58.3	58.3	86	54.1	3	5	248	0.00	29.761 
08:10	58.3	58.3	58.3	86	54.1	2	6	248	0.00	29.761 
08:15	58.3	58.3	58.3	86	54.1	3	7	248	0.00	29.767 
08:20	58.3	58.3	58.3	86	54.1	2	5	248	0.00	29.767 
08:25	58.3	58.3	58.3	86	54.1	2	5	248	0.00	29.767 
08:30	58.4	58.4	58.4	86	54.2	3	6	248	0.00	29.781 
08:35	58.6	58.6	58.6	86	54.4	2	6	248	0.00	29.781 
08:40	58.7	58.7	58.7	86	54.5	2	5	248	0.00	29.781 
08:45	58.9	58.9	58.9	85	54.4	2	5	248	0.00	29.784 
08:50	59.0	59.0	59.0	85	54.5	2	5	248	0.00	29.784 
08:55	59.0	59.0	59.0	85	54.5	2	5	248	0.00	29.784 
09:00	59.3	59.3	59.3	85	54.8	1	5	248	0.00	29.784 
09:05	59.6	59.6	59.6	85	55.1	1	7	248	0.00	29.784 
09:10	59.9	59.9	59.9	83	54.7	2	6	248	0.00	29.784 
09:15	59.9	59.9	59.9	82	54.4	2	5	248	0.00	29.784 
09:20	59.8	59.8	59.8	81	54.0	1	3	248	0.00	29.784 
09:25	59.6	59.6	59.6	81	53.8	2	6	248	0.00	29.784 
09:30	59.8	59.8	59.8	82	54.3	1	4	248	0.00	29.788 
09:35	60.1	60.1	60.1	81	54.2	1	5	248	0.00	29.788 
09:40	60.1	60.1	60.1	80	53.9	2	4	248	0.00	29.788 
09:45	60.1	60.1	60.1	80	53.9	2	5	248	0.00	29.794 
09:50	60.1	60.1	60.1	81	54.2	2	5	248	0.00	29.794 
09:55	60.4	60.4	60.4	81	54.5	1	3	248	0.00	29.794 
10:00	60.5	60.5	60.5	81	54.6	2	6	248	0.00	29.793 
10:05	60.7	60.7	60.7	80	54.5	3	9	248	0.00	29.793 
10:10	60.7	60.7	60.7	79	54.1	3	9	248	0.00	29.793 
10:15	61.0	61.0	61.0	79	54.4	3	6	248	0.00	29.792 
10:20	61.5	61.5	61.5	79	54.9	2	5	225	0.00	29.792 
10:25	61.8	61.8	61.8	77	54.5	3	9	248	0.00	29.792 
10:30	62.1	62.1	62.1	77	54.8	2	6	248	0.00	29.798 
10:35	62.6	62.6	62.6	76	54.9	1	4	248	0.00	29.798 
10:40	63.4	63.4	63.4	75	55.3	1	3	248	0.00	29.798 
10:45	63.7	63.7	63.7	72	54.5	3	6	248	0.00	29.794 
10:50	63.9	63.9	63.9	70	53.9	2	7	248	0.00	29.794 
10:55	64.3	64.3	64.3	69	53.9	2	7	248	0.00	29.794 
11:00	65.0	65.0	65.0	69	54.6	1	4	248	0.00	29.788 
11:05	65.5	65.5	65.5	67	54.2	1	5	248	0.00	29.788 
11:10	66.1	66.1	66.1	66	54.4	1	4	90	0.00	29.788 
11:15	66.3	66.3	66.3	64	53.7	2	6	248	0.00	29.786 
11:20	66.8	66.8	66.8	64	54.2	2	5	248	0.00	29.786 
11:25	66.9	66.9	66.9	62	53.4	3	7	248	0.00	29.786 
11:30	67.1	67.1	67.1	59	52.3	2	6	270	0.00	29.787 
11:35	67.4	67.4	67.4	59	52.6	2	5	248	0.00	29.787 
11:40	67.8	67.8	67.8	55	51.0	3	7	248	0.00	29.787 
11:45	67.9	67.9	67.9	56	51.6	2	5	248	0.00	29.793 
11:50	67.8	67.8	67.8	54	50.5	3	8	248	0.00	29.793 
11:55	67.4	67.4	67.4	55	50.7	4	10	248	0.00	29.793 
12:00	67.1	67.1	67.1	56	50.9	3	7	248	0.00	29.802 
12:05	67.4	67.4	67.4	56	51.1	3	6	248	0.00	29.802 
12:10	67.8	67.8	67.8	58	52.5	2	6	248	0.00	29.802 
12:15	67.9	67.9	67.9	56	51.6	3	7	248	0.00	29.797 
12:20	67.9	67.9	67.9	54	50.6	4	7	248	0.00	29.797 
12:25	68.1	68.1	68.1	54	50.8	4	9	248	0.00	29.797 
12:30	68.4	68.4	68.4	59	53.5	3	8	248	0.00	29.794 
12:35	68.8	68.8	68.8	55	52.0	2	6	248	0.00	29.794 
12:40	68.9	68.9	68.9	50	49.5	4	7	248	0.00	29.794 
12:45	69.1	69.1	69.1	48	48.6	4	11	248	0.00	29.800 
12:50	69.3	69.3	69.3	48	48.8	4	10	248	0.00	29.800 
12:55	69.4	69.4	69.4	45	47.1	4	11	248	0.00	29.800 
13:00	69.6	69.6	69.6	44	46.7	4	10	248	0.00	29.801 
13:05	69.9	69.9	69.9	46	48.2	3	10	248	0.00	29.801 
13:10	70.1	70.1	70.1	46	48.3	4	10	248	0.00	29.801 
13:15	69.9	69.9	69.9	47	48.7	4	9	248	0.00	29.796 
13:20	69.8	69.8	69.8	45	47.5	4	9	270	0.00	29.796 
13:25	69.6	69.6	69.6	43	46.1	4	12	270	0.00	29.796 
13:30	69.6	69.6	69.6	44	46.7	4	10	248	0.00	29.793 
13:35	69.9	69.9	69.9	45	47.6	5	14	248	0.00	29.793 
13:40	69.9	69.9	69.9	44	47.0	5	10	270	0.00	29.793 
13:45	69.8	69.8	69.8	45	47.5	4	9	248	0.00	29.785 
13:50	69.8	69.8	69.8	43	46.3	5	11	248	0.00	29.785 
13:55	69.6	69.6	69.6	43	46.1	4	10	248	0.00	29.785 
14:00	69.8	69.8	69.8	44	46.9	4	11	248	0.00	29.783 
14:05	70.3	70.3	70.3	45	47.9	5	13	270	0.00	29.783 
14:10	70.4	70.4	70.4	46	48.6	4	9	248	0.00	29.783 
14:15	70.4	70.4	70.4	44	47.4	4	9	248	0.00	29.772 
14:20	70.3	70.3	70.3	44	47.3	3	10	248	0.00	29.772 
14:25	70.1	70.1	70.1	42	45.9	4	9	248	0.00	29.772 
14:30	69.8	69.8	69.8	41	45.0	4	12	248	0.00	29.775 
14:35	69.8	69.8	69.8	44	46.9	4	11	292	0.00	29.775 
14:40	70.3	70.3	70.3	42	46.1	2	4	248	0.00	29.775 
14:45	71.1	71.1	71.1	44	48.1	2	7	248	0.00	29.774 
14:50	71.6	71.6	71.6	43	47.9	3	7	248	0.00	29.774 
14:55	71.6	71.6	71.6	45	49.1	4	11	248	0.00	29.774 
15:00	71.8	71.8	71.8	37	44.1	5	15	270	0.00	29.781 
15:05	72.0	72.0	72.0	35	42.8	5	10	270	0.00	29.781 
15:10	71.8	71.8	71.8	33	41.1	6	12	270	0.00	29.781 
15:15	71.6	71.6	71.6	35	42.5	4	9	270	0.00	29.778 
15:20	71.6	71.6	71.6	36	43.2	5	11	270	0.00	29.778 
15:25	72.0	72.0	72.0	37	44.3	4	11	270	0.00	29.778 
15:30	72.7	72.7	72.7	36	44.2	3	7	248	0.00	29.779 
15:35	72.3	72.3	72.3	36	43.8	5	8	270	0.00	29.779 
15:40	71.8	71.8	71.8	37	44.1	5	10	270	0.00	29.779 
15:45	71.8	71.8	71.8	37	44.1	6	12	270	0.00	29.788 
15:50	71.8	71.8	71.8	36	43.4	5	10	270	0.00	29.788 
15:55	72.3	72.3	72.3	33	41.6	4	9	248	0.00	29.788 
16:00	72.3	72.3	72.3	35	43.1	5	14	248	0.00	29.792 
16:05	72.5	72.5	72.5	34	42.5	4	13	248	0.00	29.792 
16:10	72.3	72.3	72.3	36	43.8	5	11	270	0.00	29.792 
16:15	71.6	71.6	71.6	39	45.3	4	10	248	0.00	29.791 
16:20	71.6	71.6	71.6	36	43.2	5	11	248	0.00	29.791 
16:25	71.6	71.6	71.6	37	43.9	5	8	270	0.00	29.791 
16:30	71.1	71.1	71.1	38	44.2	4	8	270	0.00	29.794 
16:35	71.5	71.5	71.5	39	45.2	4	7	270	0.00	29.794 
16:40	71.8	71.8	71.8	36	43.4	4	13	248	0.00	29.794 
16:45	71.6	71.6	71.6	39	45.3	5	15	270	0.00	29.801 
16:50	71.3	71.3	71.3	39	45.1	5	11	270	0.00	29.801 
16:55	71.1	71.1	71.1	41	46.2	4	10	270	0.00	29.801 
17:00	70.9	70.9	70.9	40	45.4	4	11	270	0.00	29.802 
17:05	70.8	70.8	70.8	41	45.9	4	7	270	0.00	29.802 
17:10	70.6	70.6	70.6	43	47.0	3	9	248	0.00	29.802 
17:15	70.3	70.3	70.3	43	46.7	5	10	270	0.00	29.804 
17:20	69.9	69.9	69.9	43	46.4	4	9	270	0.00	29.804 
17:25	69.9	69.9	69.9	44	47.0	4	11	248	0.00	29.804 
17:30	69.8	69.8	69.8	44	46.9	4	10	248	0.00	29.807 
17:35	69.4	69.4	69.4	44	46.5	4	10	270	0.00	29.807 
17:40	69.3	69.3	69.3	43	45.8	4	9	270	0.00	29.807 
17:45	69.3	69.3	69.3	43	45.8	4	10	270	0.00	29.819 
17:50	69.1	69.1	69.1	45	46.9	4	10	270	0.00	29.819 
17:55	68.9	68.9	68.9	46	47.3	4	10	270	0.00	29.819 
18:00	68.9	68.9	68.9	47	47.8	4	10	270	0.00	29.822 
18:05	68.8	68.8	68.8	52	50.4	4	9	270	0.00	29.822 
18:10	68.6	68.6	68.6	54	51.3	3	5	248	0.00	29.822 
18:15	68.3	68.3	68.3	54	51.0	4	7	270	0.00	29.837 
18:20	68.1	68.1	68.1	55	51.3	3	6	270	0.00	29.837 
18:25	67.9	67.9	67.9	55	51.1	3	7	248	0.00	29.837 
18:30	67.8	67.8	67.8	54	50.5	3	6	270	0.00	29.840 
18:35	67.8	67.8	67.8	55	51.0	2	4	270	0.00	29.840 
18:40	67.6	67.6	67.6	54	50.4	3	9	270	0.00	29.840 
18:45	67.6	67.6	67.6	54	50.4	2	5	248	0.00	29.846 
18:50	67.3	67.3	67.3	54	50.1	3	6	248	0.00	29.846 
18:55	67.1	67.1	67.1	54	49.9	3	5	270	0.00	29.846 
19:00	67.1	67.1	67.1	54	49.9	3	6	270	0.00	29.853 
19:05	66.9	66.9	66.9	55	50.2	2	9	270	0.00	29.853 
19:10	66.8	66.8	66.8	54	49.6	3	6	270	0.00	29.853 
19:15	66.8	66.8	66.8	55	50.1	2	6	248	0.00	29.861 
19:20	66.6	66.6	66.6	55	49.9	2	4	248	0.00	29.861 
19:25	66.4	66.4	66.4	52	48.2	3	6	270	0.00	29.861 
19:30	66.3	66.3	66.3	53	48.6	2	5	270	0.00	29.865 
19:35	66.3	66.3	66.3	53	48.6	2	5	270	0.00	29.865 
19:40	66.1	66.1	66.1	53	48.5	2	5	270	0.00	29.865 
19:45	66.0	66.0	66.0	53	48.4	1	4	292	0.00	29.873 
19:50	65.8	65.8	65.8	53	48.2	2	5	248	0.00	29.873 
19:55	65.5	65.5	65.5	53	47.9	2	5	248	0.00	29.873 
20:00	65.3	65.3	65.3	53	47.7	1	3	248	0.00	29.877 
20:05	65.0	65.0	65.0	53	47.4	1	3	248	0.00	29.877 
20:10	64.7	64.7	64.7	53	47.2	1	4	248	0.00	29.877 
20:15	64.5	64.5	64.5	54	47.5	1	3	248	0.00	29.882 
20:20	64.2	64.2	64.2	54	47.2	0	2	248	0.00	29.882 
20:25	63.9	63.9	63.9	53	46.4	1	4	248	0.00	29.882 
20:30	63.7	63.7	63.7	52	45.7	1	5	248	0.00	29.886 
20:35	63.5	63.5	63.5	52	45.6	1	3	248	0.00	29.886 
20:40	63.2	63.2	63.2	52	45.3	1	3	248	0.00	29.886 
20:45	63.1	63.1	63.1	51	44.7	0	3	248	0.00	29.880 
20:50	62.9	62.9	62.9	51	44.5	1	3	248	0.00	29.880 
20:55	62.7	62.7	62.7	52	44.8	1	2	248	0.00	29.880 
21:00	62.4	62.4	62.4	52	44.5	1	3	248	0.00	29.887 
21:05	62.1	62.1	62.1	52	44.3	1	2	248	0.00	29.887 
21:10	62.0	62.0	62.0	53	44.7	0	2	248	0.00	29.887 
21:15	61.6	61.6	61.6	52	43.8	0	2	248	0.00	29.897 
21:20	61.3	61.3	61.3	53	44.0	0	1	248	0.00	29.897 
21:25	61.2	61.2	61.2	53	43.9	0	1	248	0.00	29.897 
21:30	60.9	60.9	60.9	53	43.7	0	2	248	0.00	29.907 
21:35	60.7	60.7	60.7	54	44.0	0	1	248	0.00	29.907 
21:40	60.5	60.5	60.5	54	43.8	0	2	248	0.00	29.907 
21:45	60.4	60.4	60.4	54	43.7	0	1	248	0.00	29.912 
21:50	60.1	60.1	60.1	54	43.4	0	1	248	0.00	29.912 
21:55	59.9	59.9	59.9	55	43.7	0	1	248	0.00	29.912 
22:00	59.6	59.6	59.6	56	43.9	0	0	---	0.00	29.914 
22:05	59.3	59.3	59.3	56	43.6	0	0	---	0.00	29.914 
22:10	58.9	58.9	58.9	57	43.7	0	1	248	0.00	29.914 
22:15	58.6	58.6	58.6	58	43.9	0	1	248	0.00	29.919 
22:20	58.3	58.3	58.3	58	43.6	0	1	248	0.00	29.919 
22:25	58.1	58.1	58.1	58	43.4	0	1	248	0.00	29.919 
22:30	58.0	58.0	58.0	58	43.3	0	2	248	0.00	29.935 
22:35	58.1	58.1	58.1	58	43.4	0	1	248	0.00	29.935 
22:40	58.1	58.1	58.1	58	43.4	0	1	248	0.00	29.935 
22:45	58.0	58.0	58.0	58	43.3	0	1	248	0.00	29.941 
22:50	57.6	57.6	57.6	57	42.5	0	2	248	0.00	29.941 
22:55	57.5	57.5	57.5	56	41.9	0	2	248	0.00	29.941 
23:00	57.3	57.3	57.3	56	41.7	0	2	248	0.00	29.951 
23:05	57.2	57.2	57.2	57	42.1	0	2	248	0.00	29.951 
23:10	56.9	56.9	56.9	58	42.3	0	2	248	0.00	29.951 
23:15	56.7	56.7	56.7	59	42.5	0	2	248	0.00	29.954 
23:20	56.5	56.5	56.5	59	42.3	0	2	248	0.00	29.954 
23:25	56.3	56.3	56.3	60	42.6	0	2	248	0.00	29.954 
23:30	56.0	56.0	56.0	61	42.7	0	1	248	0.00	29.956 
23:35	55.9	55.9	55.9	62	43.1	0	2	248	0.00	29.956 
23:40	55.7	55.7	55.7	62	42.9	0	1	248	0.00	29.956 
23:45	55.4	55.4	55.4	63	43.0	0	1	248	0.00	29.966 
23:50	55.3	55.3	55.3	63	42.9	1	3	248	0.00	29.966 
23:55	55.1	55.1	55.1	64	43.1	0	1	0	0.00	29.966 

CoCoRaHS
IN-AL-39
A2 Web Hosting
Creative Commons License
GoDaddy
search engine by freefind advanced

loaded 2018-11-22 05:26:00 • last modified 2010-11-18 10:43:29
Privacy PolicyDisclaimer
• wx.awcolley.com is powered by PmWiki v.2002016 •
• all content (unless otherwise noted) © 2018 A W Colley